Time;durP1;ratioP1;P1;durP2;ratioP2;P2;SDS_P1;SDS_P2;PMS_P1;PMS_P2;Temp;Humidity;BMP_temperature;BMP_pressure;BME280_temperature;BME280_humidity;BME280_pressure;Samples;Min_cycle;Max_cycle;Signal;HPM_P1;HPM_P2
2021/12/10 00:00:33;;;;;;;33.25;19.75;;;7.10;99.90;;;;;;6150379;23;20096;-89
2021/12/10 00:03:01;;;;;;;33.10;18.13;;;6.70;99.90;;;;;;6150303;23;20017;-90
2021/12/10 00:05:32;;;;;;;29.70;17.00;;;8.90;99.90;;;;;;6150605;23;20013;-89
2021/12/10 00:07:59;;;;;;;39.38;19.55;;;8.80;99.90;;;;;;6150589;23;20073;-89
2021/12/10 00:10:31;;;;;;;33.72;17.95;;;8.10;99.90;;;;;;6150214;23;20019;-89
2021/12/10 00:12:57;;;;;;;33.70;18.38;;;6.60;99.90;;;;;;6150213;23;20352;-89
2021/12/10 00:15:27;;;;;;;29.95;16.98;;;7.30;99.90;;;;;;6150139;23;20493;-90
2021/12/10 00:17:55;;;;;;;32.13;17.48;;;7.60;99.90;;;;;;6150239;23;20324;-90
2021/12/10 00:20:24;;;;;;;31.98;16.00;;;8.00;99.90;;;;;;6151857;23;20074;-89
2021/12/10 00:22:58;;;;;;;35.03;16.77;;;8.20;99.90;;;;;;6150452;23;20017;-90
2021/12/10 00:25:34;;;;;;;30.77;16.83;;;8.10;99.90;;;;;;6150458;23;20047;-90
2021/12/10 00:28:13;;;;;;;31.92;17.00;;;7.30;99.90;;;;;;6149994;23;20017;-89
2021/12/10 00:30:48;;;;;;;25.30;14.77;;;6.60;99.90;;;;;;6150380;23;20044;-90
2021/12/10 00:33:20;;;;;;;30.03;16.37;;;7.40;99.90;;;;;;6150054;23;20093;-90
2021/12/10 00:35:47;;;;;;;31.92;15.98;;;8.60;99.90;;;;;;6150362;23;20303;-89
2021/12/10 00:38:13;;;;;;;29.23;15.10;;;8.00;99.90;;;;;;6151047;23;20018;-89
2021/12/10 00:40:41;;;;;;;28.23;14.45;;;7.70;99.90;;;;;;6151122;23;20036;-88
2021/12/10 00:43:06;;;;;;;32.28;15.93;;;8.50;99.90;;;;;;6151081;23;20014;-90
2021/12/10 00:45:33;;;;;;;28.13;14.85;;;5.10;99.90;;;;;;6151495;23;20039;-89
2021/12/10 00:47:59;;;;;;;27.67;14.25;;;8.40;99.90;;;;;;6151313;23;20018;-89
2021/12/10 00:50:30;;;;;;;27.70;15.10;;;8.60;99.90;;;;;;6153188;23;20056;-89
2021/12/10 00:52:56;;;;;;;40.33;17.70;;;7.00;99.90;;;;;;6129673;23;20053;-88
2021/12/10 00:55:25;;;;;;;41.00;18.88;;;6.60;99.90;;;;;;6156010;23;20021;-89
2021/12/10 00:57:51;;;;;;;35.25;16.75;;;8.20;99.90;;;;;;6155841;23;20017;-89
2021/12/10 01:00:23;;;;;;;40.80;16.17;;;7.20;99.90;;;;;;6156058;22;20029;-89
2021/12/10 01:02:50;;;;;;;38.35;18.33;;;6.60;99.90;;;;;;6156207;23;20009;-89
2021/12/10 01:05:16;;;;;;;21.48;13.63;;;8.20;99.90;;;;;;6155993;23;20013;-88
2021/12/10 01:07:43;;;;;;;38.15;17.38;;;8.30;99.90;;;;;;6156416;23;20028;-89
2021/12/10 01:10:22;;;;;;;30.13;14.95;;;8.50;99.90;;;;;;6155900;23;20091;-89
2021/12/10 01:12:51;;;;;;;23.05;13.02;;;6.60;99.90;;;;;;6131248;23;20036;-89
2021/12/10 01:15:43;;;;;;;28.48;15.95;;;6.60;99.90;;;;;;6155656;22;20029;-90
2021/12/10 01:26:50;;;;;;;25.75;13.00;;;7.50;99.90;;;;;;6155862;23;20021;-88
2021/12/10 01:29:22;;;;;;;28.23;16.75;;;6.70;99.90;;;;;;6201376;22;20021;-88
2021/12/10 01:31:48;;;;;;;24.67;12.98;;;7.40;99.90;;;;;;6155834;23;20019;-89
2021/12/10 01:34:15;;;;;;;22.58;12.27;;;6.80;99.90;;;;;;6156036;22;20017;-88
2021/12/10 01:36:41;;;;;;;34.25;13.90;;;8.40;99.90;;;;;;6155962;22;20603;-89
2021/12/10 01:39:11;;;;;;;30.58;13.70;;;8.30;99.90;;;;;;6155844;23;20117;-88
2021/12/10 01:41:39;;;;;;;25.05;13.85;;;6.70;99.90;;;;;;6155490;23;20021;-88
2021/12/10 01:44:15;;;;;;;23.52;13.20;;;8.70;99.90;;;;;;6156174;22;20021;-88
2021/12/10 01:46:44;;;;;;;24.98;12.85;;;6.80;99.90;;;;;;6156326;22;20024;-89
2021/12/10 01:49:12;;;;;;;28.45;13.07;;;8.70;99.90;;;;;;6155790;22;20351;-88
2021/12/10 01:51:40;;;;;;;23.02;12.25;;;8.60;99.90;;;;;;6149172;22;20079;-88
2021/12/10 01:54:13;;;;;;;21.73;11.68;;;6.70;99.90;;;;;;6151030;23;20344;-89
2021/12/10 01:56:40;;;;;;;24.83;10.35;;;6.70;99.90;;;;;;6126532;23;20018;-88
2021/12/10 01:59:08;;;;;;;23.23;10.98;;;8.00;99.90;;;;;;6150842;23;20056;-88
2021/12/10 02:01:41;;;;;;;25.75;10.77;;;6.80;99.90;;;;;;6150677;23;20017;-89
2021/12/10 02:04:09;;;;;;;19.52;9.82;;;6.70;99.90;;;;;;6150710;23;20070;-89
2021/12/10 02:06:35;;;;;;;24.83;9.73;;;8.60;99.90;;;;;;6150818;23;20018;-90
2021/12/10 02:09:03;;;;;;;22.30;9.57;;;6.70;99.90;;;;;;6150877;23;20347;-90
2021/12/10 02:11:28;;;;;;;17.27;9.48;;;8.80;99.90;;;;;;6255486;22;20092;-89
2021/12/10 02:13:54;;;;;;;16.60;7.40;;;8.80;99.90;;;;;;6150841;23;20053;-89
2021/12/10 02:16:20;;;;;;;25.23;10.20;;;8.10;99.90;;;;;;6150676;23;20009;-88
2021/12/10 02:18:46;;;;;;;16.20;9.15;;;8.40;99.90;;;;;;6150790;23;20028;-89
2021/12/10 02:21:11;;;;;;;21.27;11.45;;;7.80;99.90;;;;;;6150642;23;20021;-88
2021/12/10 02:23:41;;;;;;;28.77;13.93;;;8.60;99.90;;;;;;6150734;23;20025;-88
2021/12/10 02:26:10;;;;;;;29.70;9.85;;;8.40;99.90;;;;;;6152539;23;20009;-89
2021/12/10 02:28:38;;;;;;;16.13;8.82;;;6.60;99.90;;;;;;6150770;23;20017;-88
2021/12/10 02:31:04;;;;;;;21.63;10.82;;;6.50;99.90;;;;;;6151037;23;20336;-90
2021/12/10 02:33:31;;;;;;;25.05;10.65;;;7.50;99.90;;;;;;6150730;23;20013;-92
2021/12/10 02:35:57;;;;;;;22.48;10.18;;;8.70;99.90;;;;;;6150629;23;20071;-91
2021/12/10 02:38:23;;;;;;;22.85;12.30;;;8.50;99.90;;;;;;6150590;23;20024;-91
2021/12/10 02:40:51;;;;;;;23.42;11.38;;;8.70;99.90;;;;;;6150593;23;20018;-89
2021/12/10 02:43:19;;;;;;;20.80;12.15;;;7.90;99.90;;;;;;6254976;22;20025;-89
2021/12/10 02:45:48;;;;;;;24.48;12.50;;;6.50;99.90;;;;;;6150969;23;20049;-89
2021/12/10 02:48:15;;;;;;;24.27;12.40;;;7.40;99.90;;;;;;6150804;22;20061;-89
2021/12/10 02:50:43;;;;;;;16.38;9.65;;;6.30;99.90;;;;;;6150585;23;20017;-90
2021/12/10 02:53:10;;;;;;;18.38;9.40;;;7.90;99.90;;;;;;6150587;23;20075;-90
2021/12/10 02:55:37;;;;;;;23.23;10.02;;;6.00;99.90;;;;;;6150583;23;20356;-90
2021/12/10 02:58:09;;;;;;;27.15;12.80;;;8.00;99.90;;;;;;6150710;23;20010;-90
2021/12/10 03:00:41;;;;;;;23.70;11.75;;;7.80;99.90;;;;;;6150117;23;20029;-90
2021/12/10 03:03:07;;;;;;;18.58;9.20;;;6.30;99.90;;;;;;6150726;23;20464;-92
2021/12/10 03:05:33;;;;;;;17.30;9.77;;;7.60;99.90;;;;;;6150783;23;20100;-90
2021/12/10 03:07:59;;;;;;;17.77;8.95;;;6.60;99.90;;;;;;6150453;23;20096;-90
2021/12/10 03:10:29;;;;;;;21.38;9.77;;;7.80;99.90;;;;;;6150834;23;20017;-89
2021/12/10 03:12:55;;;;;;;22.77;10.00;;;6.80;99.90;;;;;;6150499;23;20013;-88
2021/12/10 03:15:22;;;;;;;16.73;8.60;;;6.40;99.90;;;;;;6151071;23;20022;-91
2021/12/10 03:17:49;;;;;;;20.10;9.00;;;5.60;99.90;;;;;;6150658;23;20114;-91
2021/12/10 03:20:19;;;;;;;45.03;9.55;;;5.60;99.90;;;;;;6150840;23;20461;-90
2021/12/10 03:22:45;;;;;;;17.75;9.02;;;6.20;99.90;;;;;;6150268;23;20024;-89
2021/12/10 03:25:14;;;;;;;18.73;10.73;;;5.10;99.90;;;;;;6150472;23;20096;-89
2021/12/10 03:27:41;;;;;;;22.48;9.10;;;7.40;99.90;;;;;;6150716;23;20028;-90
2021/12/10 03:30:10;;;;;;;12.80;8.20;;;8.00;99.90;;;;;;6150477;23;20021;-89
2021/12/10 03:32:38;;;;;;;15.75;10.00;;;6.10;99.90;;;;;;6150494;23;20013;-89
2021/12/10 03:35:10;;;;;;;21.58;10.40;;;7.80;99.90;;;;;;6150376;23;20024;-89
2021/12/10 03:37:37;;;;;;;15.73;8.25;;;5.90;99.90;;;;;;6150360;23;20024;-89
2021/12/10 03:40:05;;;;;;;23.10;10.43;;;5.80;99.90;;;;;;6150406;23;20024;-89
2021/12/10 03:42:31;;;;;;;21.20;10.50;;;5.80;99.90;;;;;;6150077;23;20016;-88
2021/12/10 03:44:57;;;;;;;24.95;10.40;;;6.80;99.90;;;;;;6150708;23;20017;-89
2021/12/10 03:47:23;;;;;;;21.90;11.25;;;7.50;99.90;;;;;;6150175;23;20075;-88
2021/12/10 03:49:49;;;;;;;22.15;11.10;;;7.50;99.90;;;;;;6150375;23;20029;-89
2021/12/10 03:52:15;;;;;;;23.85;11.82;;;5.00;99.90;;;;;;6249354;22;20084;-89
2021/12/10 03:54:41;;;;;;;21.67;9.93;;;6.90;99.90;;;;;;6109102;23;20034;-91
2021/12/10 03:57:08;;;;;;;19.65;10.18;;;7.00;99.90;;;;;;6120482;23;20018;-89
2021/12/10 03:59:36;;;;;;;22.75;8.82;;;6.50;99.90;;;;;;6120892;23;20022;-89
2021/12/10 04:02:04;;;;;;;24.65;7.78;;;7.30;99.90;;;;;;6124804;23;20404;-90
2021/12/10 04:04:36;;;;;;;12.93;6.82;;;5.30;99.90;;;;;;6125695;23;20071;-90
2021/12/10 04:07:08;;;;;;;21.02;9.48;;;5.40;99.90;;;;;;6125742;23;20044;-90
2021/12/10 04:09:34;;;;;;;20.98;8.00;;;7.30;99.90;;;;;;6126041;23;20466;-90
2021/12/10 04:12:00;;;;;;;21.30;11.38;;;5.40;99.90;;;;;;6125105;23;20021;-90
2021/12/10 04:14:26;;;;;;;16.40;9.23;;;6.60;99.90;;;;;;6125658;23;20451;-90
2021/12/10 04:16:56;;;;;;;19.33;10.23;;;7.50;99.90;;;;;;6125303;23;20013;-89
2021/12/10 04:19:25;;;;;;;16.42;11.00;;;4.10;99.90;;;;;;6125138;23;20014;-89
2021/12/10 04:21:52;;;;;;;18.58;9.35;;;7.10;99.90;;;;;;6125165;23;20018;-89
2021/12/10 04:24:20;;;;;;;30.48;11.57;;;6.70;99.90;;;;;;6125569;23;20079;-89
2021/12/10 04:26:47;;;;;;;75.93;12.55;;;7.00;99.90;;;;;;6149822;23;20097;-89
2021/12/10 04:29:14;;;;;;;15.27;9.70;;;5.90;99.90;;;;;;6125467;23;20010;-89
2021/12/10 04:31:40;;;;;;;14.25;6.80;;;5.20;99.90;;;;;;6125490;23;20397;-89
2021/12/10 04:34:05;;;;;;;16.40;8.80;;;5.20;99.90;;;;;;6125528;23;20088;-89
2021/12/10 04:36:33;;;;;;;25.15;10.75;;;6.60;99.90;;;;;;6125989;23;20021;-89
2021/12/10 04:38:59;;;;;;;18.48;8.82;;;7.30;99.90;;;;;;6125360;23;20439;-89
2021/12/10 04:41:25;;;;;;;23.65;11.07;;;4.60;99.90;;;;;;6125804;23;20074;-89
2021/12/10 04:43:52;;;;;;;18.88;10.30;;;6.30;99.90;;;;;;6125309;23;20013;-89
2021/12/10 04:46:18;;;;;;;21.77;11.20;;;7.00;99.90;;;;;;6125286;23;20022;-89
2021/12/10 04:48:52;;;;;;;23.08;9.13;;;6.90;99.90;;;;;;6125236;23;20021;-89
2021/12/10 04:51:22;;;;;;;15.50;8.52;;;5.10;99.90;;;;;;6125747;23;20040;-89
2021/12/10 04:53:49;;;;;;;20.25;11.65;;;4.90;99.90;;;;;;6244195;22;20025;-88
2021/12/10 04:56:16;;;;;;;16.08;9.63;;;4.70;99.90;;;;;;6227961;23;20018;-88
2021/12/10 04:58:42;;;;;;;18.40;10.07;;;6.00;99.90;;;;;;6254061;22;20018;-89
2021/12/10 05:01:08;;;;;;;116.05;16.30;;;6.70;99.90;;;;;;6254214;22;20014;-89
2021/12/10 05:03:34;;;;;;;15.65;8.93;;;3.40;99.90;;;;;;6254206;22;20063;-89
2021/12/10 05:06:01;;;;;;;19.30;10.07;;;5.20;99.90;;;;;;6228450;23;20014;-89
2021/12/10 05:08:27;;;;;;;21.30;11.63;;;6.50;99.90;;;;;;6228586;23;20025;-89
2021/12/10 05:10:53;;;;;;;25.70;10.23;;;6.00;99.90;;;;;;6253892;22;20348;-89
2021/12/10 05:13:20;;;;;;;18.75;8.55;;;6.50;99.90;;;;;;6254189;22;20018;-89
2021/12/10 05:15:53;;;;;;;19.80;10.25;;;6.00;99.90;;;;;;6279475;22;20057;-89
2021/12/10 05:18:19;;;;;;;23.05;13.10;;;4.70;99.90;;;;;;6254014;22;20010;-88
2021/12/10 05:20:48;;;;;;;18.80;10.90;;;4.60;99.90;;;;;;6254049;22;20093;-89
2021/12/10 05:23:15;;;;;;;18.95;9.07;;;6.30;99.90;;;;;;6254670;22;20021;-89
2021/12/10 05:25:42;;;;;;;17.92;10.13;;;6.60;99.90;;;;;;6255839;22;20014;-88
2021/12/10 05:28:08;;;;;;;18.15;11.63;;;6.50;99.90;;;;;;6255709;22;20092;-88
2021/12/10 05:30:34;;;;;;;23.25;12.27;;;5.90;99.90;;;;;;6255822;22;20017;-88
2021/12/10 05:33:02;;;;;;;28.10;11.35;;;6.50;99.90;;;;;;6255739;22;20092;-88
2021/12/10 05:35:29;;;;;;;24.20;12.85;;;6.70;99.90;;;;;;6255651;22;20021;-87
2021/12/10 05:37:55;;;;;;;28.00;14.82;;;6.60;99.90;;;;;;6255890;22;20108;-88
2021/12/10 05:40:23;;;;;;;24.08;13.20;;;5.40;99.90;;;;;;6152635;23;20025;-88
2021/12/10 05:42:49;;;;;;;1088.03;58.10;;;4.50;99.90;;;;;;6255422;22;20028;-89
2021/12/10 05:45:17;;;;;;;19.05;11.13;;;6.90;99.90;;;;;;6255728;22;20013;-89
2021/12/10 05:47:44;;;;;;;22.25;12.75;;;4.00;99.90;;;;;;6255658;22;20467;-88
2021/12/10 05:50:11;;;;;;;25.75;10.65;;;6.40;99.90;;;;;;6255394;22;20096;-89
2021/12/10 05:52:36;;;;;;;21.80;11.02;;;6.30;99.90;;;;;;6224146;22;20017;-88
2021/12/10 05:55:04;;;;;;;20.77;8.63;;;5.50;99.90;;;;;;6155628;23;20071;-88
2021/12/10 05:57:30;;;;;;;11.02;7.13;;;4.40;99.90;;;;;;6155638;23;20017;-89
2021/12/10 05:59:56;;;;;;;22.33;10.70;;;4.50;99.90;;;;;;6155774;23;20036;-88
2021/12/10 06:02:21;;;;;;;16.90;9.30;;;4.70;99.90;;;;;;6155773;23;20017;-89
2021/12/10 06:04:47;;;;;;;15.32;8.75;;;4.50;99.90;;;;;;6155488;23;20048;-89
2021/12/10 06:07:13;;;;;;;14.32;8.13;;;4.60;99.90;;;;;;6260581;22;20019;-89
2021/12/10 06:09:39;;;;;;;14.88;8.88;;;6.60;99.90;;;;;;6155853;22;20013;-89
2021/12/10 06:12:05;;;;;;;16.67;9.10;;;4.70;99.90;;;;;;6155647;23;20077;-88
2021/12/10 06:14:31;;;;;;;26.13;11.95;;;4.70;99.90;;;;;;6155673;23;20013;-88
2021/12/10 06:16:57;;;;;;;20.92;9.98;;;4.70;99.90;;;;;;6156142;23;20347;-88
2021/12/10 06:19:24;;;;;;;24.38;9.30;;;6.20;99.90;;;;;;6155433;23;20019;-88
2021/12/10 06:21:51;;;;;;;14.65;8.60;;;5.30;99.90;;;;;;6155365;23;20017;-89
2021/12/10 06:24:16;;;;;;;13.63;7.80;;;6.10;99.90;;;;;;6155702;23;20021;-88
2021/12/10 06:26:42;;;;;;;13.70;7.60;;;4.80;99.90;;;;;;6155451;23;20347;-89
2021/12/10 06:29:08;;;;;;;14.23;8.02;;;5.80;99.90;;;;;;6260380;22;20134;-89
2021/12/10 06:31:35;;;;;;;12.45;8.25;;;6.30;99.90;;;;;;6131037;23;20021;-89
2021/12/10 06:34:01;;;;;;;13.98;8.13;;;5.20;99.90;;;;;;6155580;23;20096;-89
2021/12/10 06:36:28;;;;;;;13.70;8.10;;;6.50;99.90;;;;;;6259584;22;20021;-89
2021/12/10 06:38:54;;;;;;;14.50;7.05;;;5.90;99.90;;;;;;6260109;22;20017;-89
2021/12/10 06:41:21;;;;;;;12.35;7.45;;;7.00;99.90;;;;;;6155797;23;20082;-89
2021/12/10 06:43:47;;;;;;;18.35;8.88;;;4.80;99.90;;;;;;6155515;23;20021;-89
2021/12/10 06:46:14;;;;;;;16.23;9.15;;;5.20;99.90;;;;;;6155669;22;20051;-88
2021/12/10 06:48:40;;;;;;;15.48;7.63;;;6.90;99.90;;;;;;6155676;23;20017;-88
2021/12/10 06:51:13;;;;;;;13.85;8.60;;;6.80;99.90;;;;;;6155604;22;20096;-89
2021/12/10 06:53:41;;;;;;;14.65;7.22;;;4.80;99.90;;;;;;6149406;23;20014;-89
2021/12/10 06:56:08;;;;;;;18.30;10.50;;;4.90;99.90;;;;;;6150259;23;20091;-89
2021/12/10 06:58:35;;;;;;;21.20;10.07;;;5.70;99.90;;;;;;6150346;23;20018;-89
2021/12/10 07:01:06;;;;;;;23.13;9.98;;;6.90;99.90;;;;;;6150417;23;20017;-89
2021/12/10 07:03:32;;;;;;;17.55;10.27;;;6.20;99.90;;;;;;6126039;23;20018;-89
2021/12/10 07:06:00;;;;;;;22.75;12.65;;;6.40;99.90;;;;;;6150851;23;20018;-88
2021/12/10 07:08:28;;;;;;;16.45;10.88;;;6.20;99.90;;;;;;6150751;23;20097;-89
2021/12/10 07:10:55;;;;;;;19.58;11.25;;;6.70;99.90;;;;;;6150269;23;20355;-89
2021/12/10 07:13:21;;;;;;;21.73;11.00;;;6.80;99.90;;;;;;6150673;23;20014;-90
2021/12/10 07:15:49;;;;;;;16.10;9.25;;;5.20;99.90;;;;;;6149943;23;20394;-85
2021/12/10 07:18:16;;;;;;;18.77;10.82;;;6.90;99.90;;;;;;6150126;23;20348;-85
2021/12/10 07:20:43;;;;;;;20.27;10.88;;;5.40;99.90;;;;;;6150095;23;20014;-87
2021/12/10 07:23:10;;;;;;;14.38;8.80;;;5.20;99.90;;;;;;6254630;22;20018;-88
2021/12/10 07:25:36;;;;;;;13.93;7.90;;;5.10;99.90;;;;;;6150211;23;20333;-85
2021/12/10 07:28:05;;;;;;;15.93;8.90;;;5.30;99.90;;;;;;6254839;22;20108;-87
2021/12/10 07:30:32;;;;;;;14.63;9.23;;;5.30;99.90;;;;;;6125971;23;20068;-84
2021/12/10 07:32:58;;;;;;;20.27;8.65;;;6.10;99.90;;;;;;6150247;23;20020;-85
2021/12/10 07:35:24;;;;;;;15.73;9.52;;;3.80;99.90;;;;;;6125504;23;20496;-89
2021/12/10 07:37:52;;;;;;;16.77;9.77;;;4.30;99.90;;;;;;6150715;23;20093;-86
2021/12/10 07:40:22;;;;;;;12.25;7.93;;;7.30;99.90;;;;;;6176535;23;20014;-84
2021/12/10 07:42:49;;;;;;;17.20;10.05;;;5.10;99.90;;;;;;6150058;23;20039;-84
2021/12/10 07:45:15;;;;;;;19.85;9.35;;;5.40;99.90;;;;;;6150000;23;20014;-85
2021/12/10 07:47:42;;;;;;;11.27;7.57;;;3.80;99.90;;;;;;6150014;23;20029;-88
2021/12/10 07:50:12;;;;;;;14.10;6.93;;;7.40;99.90;;;;;;6150150;23;20017;-87
2021/12/10 07:52:40;;;;;;;13.73;7.25;;;7.20;99.90;;;;;;6150111;23;20047;-87
2021/12/10 07:55:10;;;;;;;14.38;8.43;;;5.10;99.90;;;;;;6149330;23;20056;-87
2021/12/10 07:57:36;;;;;;;13.90;7.65;;;5.10;99.90;;;;;;6253842;22;20028;-87
2021/12/10 08:00:06;;;;;;;15.07;7.30;;;5.10;99.90;;;;;;6150621;23;20074;-87
2021/12/10 08:02:32;;;;;;;12.60;6.70;;;5.20;99.90;;;;;;6149600;23;20108;-82
2021/12/10 08:05:06;;;;;;;20.55;7.85;;;5.10;99.90;;;;;;6149634;23;20057;-83
2021/12/10 08:07:33;;;;;;;13.00;7.50;;;5.10;99.90;;;;;;6149793;23;20021;-86
2021/12/10 08:09:59;;;;;;;11.52;7.28;;;7.30;99.90;;;;;;6149965;23;20017;-87
2021/12/10 08:12:24;;;;;;;11.43;7.90;;;5.10;99.90;;;;;;6150501;23;20080;-87
2021/12/10 08:14:53;;;;;;;11.82;7.22;;;5.30;99.90;;;;;;6149937;23;20024;-85
2021/12/10 08:17:20;;;;;;;14.18;8.40;;;4.80;99.90;;;;;;6149785;23;20440;-84
2021/12/10 08:19:47;;;;;;;15.85;8.05;;;6.00;99.90;;;;;;6125718;23;20017;-84
2021/12/10 08:22:14;;;;;;;11.65;7.53;;;6.40;99.90;;;;;;6149738;23;20044;-84
2021/12/10 08:24:41;;;;;;;14.93;8.40;;;7.00;99.90;;;;;;6279957;22;20026;-86
2021/12/10 08:27:07;;;;;;;11.77;7.07;;;4.80;99.90;;;;;;6148657;23;20030;-85
2021/12/10 08:29:34;;;;;;;10.77;7.47;;;4.90;99.90;;;;;;6149244;23;20075;-84
2021/12/10 08:32:00;;;;;;;11.05;8.32;;;5.10;99.90;;;;;;6149444;23;20010;-85
2021/12/10 08:34:26;;;;;;;12.95;8.07;;;6.50;99.90;;;;;;6149140;23;20060;-86
2021/12/10 08:36:52;;;;;;;14.25;8.75;;;4.70;99.90;;;;;;6149326;23;20018;-85
2021/12/10 08:39:18;;;;;;;12.90;7.68;;;4.80;99.90;;;;;;6148674;23;20022;-81
2021/12/10 08:41:44;;;;;;;14.75;8.40;;;5.90;99.90;;;;;;6148652;23;20024;-83
2021/12/10 08:44:11;;;;;;;15.43;7.63;;;4.60;99.90;;;;;;6148991;23;20351;-85
2021/12/10 08:46:38;;;;;;;16.92;8.20;;;5.80;99.90;;;;;;6148895;23;20018;-84
2021/12/10 08:49:05;;;;;;;17.77;8.68;;;4.50;99.90;;;;;;6148952;23;20025;-84
2021/12/10 08:51:36;;;;;;;12.93;7.03;;;4.60;99.90;;;;;;6148827;23;20363;-83
2021/12/10 08:54:06;;;;;;;15.02;7.63;;;5.80;99.90;;;;;;6162772;22;20384;-85
2021/12/10 08:56:33;;;;;;;13.35;7.18;;;6.60;99.90;;;;;;6153432;23;20063;-86
2021/12/10 08:59:00;;;;;;;13.93;7.75;;;6.00;99.90;;;;;;6154248;23;20021;-86
2021/12/10 09:01:33;;;;;;;14.05;6.75;;;6.20;99.90;;;;;;6154922;23;20096;-84
2021/12/10 09:04:01;;;;;;;13.48;7.90;;;5.20;99.90;;;;;;6181671;23;20021;-84
2021/12/10 09:06:33;;;;;;;13.23;7.25;;;6.70;99.90;;;;;;6154873;23;20056;-83
2021/12/10 09:09:00;;;;;;;15.48;7.28;;;5.70;99.90;;;;;;6155198;23;20286;-83
2021/12/10 09:11:26;;;;;;;12.70;7.93;;;4.70;99.90;;;;;;6154925;23;20500;-85
2021/12/10 09:13:52;;;;;;;10.32;7.07;;;6.30;99.90;;;;;;6154795;23;20017;-84
2021/12/10 09:16:24;;;;;;;14.73;7.35;;;5.70;99.90;;;;;;6155159;23;20024;-86
2021/12/10 09:18:52;;;;;;;13.20;7.38;;;4.80;99.90;;;;;;6154983;23;20032;-82
2021/12/10 09:21:19;;;;;;;19.05;9.20;;;7.00;99.90;;;;;;6153693;23;20105;-82
2021/12/10 09:23:45;;;;;;;9.60;5.97;;;4.90;99.90;;;;;;6154997;23;20329;-84
2021/12/10 09:26:16;;;;;;;16.70;7.22;;;4.90;99.90;;;;;;6130625;23;20096;-84
2021/12/10 09:28:44;;;;;;;11.52;6.20;;;6.60;99.90;;;;;;6155504;23;20018;-85
2021/12/10 09:31:12;;;;;;;13.25;7.50;;;5.10;99.90;;;;;;6154732;23;20131;-86
2021/12/10 09:33:38;;;;;;;13.32;7.35;;;7.10;99.90;;;;;;6154943;23;20021;-85
2021/12/10 09:36:05;;;;;;;17.20;7.50;;;5.20;99.90;;;;;;6154705;23;20028;-83
2021/12/10 09:38:32;;;;;;;21.27;8.35;;;7.40;99.90;;;;;;6154898;23;20072;-84
2021/12/10 09:41:02;;;;;;;14.57;6.72;;;7.30;99.90;;;;;;6153484;23;20433;-85
2021/12/10 09:43:29;;;;;;;12.27;6.63;;;5.00;99.90;;;;;;6153728;23;20017;-84
2021/12/10 09:45:56;;;;;;;19.27;7.13;;;5.00;99.90;;;;;;6259294;22;20519;-85
2021/12/10 09:48:23;;;;;;;13.30;6.10;;;6.10;99.90;;;;;;6154639;23;20013;-84
2021/12/10 09:50:55;;;;;;;10.60;6.47;;;7.10;99.90;;;;;;6154399;23;20018;-85
2021/12/10 09:53:27;;;;;;;15.35;6.78;;;5.10;99.90;;;;;;6155030;22;20406;-90
2021/12/10 09:55:54;;;;;;;11.90;6.35;;;5.10;99.90;;;;;;6130350;23;20035;-85
2021/12/10 09:58:21;;;;;;;14.10;6.82;;;7.00;99.90;;;;;;6154570;23;20014;-85
2021/12/10 10:00:52;;;;;;;15.60;7.35;;;6.90;99.90;;;;;;6154934;23;20031;-84
2021/12/10 10:03:21;;;;;;;12.02;6.50;;;5.50;99.90;;;;;;6154852;23;20088;-85
2021/12/10 10:05:47;;;;;;;14.82;7.30;;;7.20;99.90;;;;;;6154674;23;20021;-84
2021/12/10 10:08:18;;;;;;;8.57;5.97;;;5.60;99.90;;;;;;6154193;23;20024;-84
2021/12/10 10:10:48;;;;;;;12.23;6.05;;;7.10;99.90;;;;;;6154161;23;20028;-91
2021/12/10 10:13:16;;;;;;;17.80;6.00;;;5.60;99.90;;;;;;6154468;23;20096;-90
2021/12/10 10:15:42;;;;;;;9.93;4.95;;;6.00;99.90;;;;;;6154598;23;20014;-85
2021/12/10 10:18:15;;;;;;;11.15;4.75;;;5.60;99.90;;;;;;6154702;23;20450;-86
2021/12/10 10:20:47;;;;;;;10.05;6.63;;;5.60;99.90;;;;;;6154623;23;20017;-87
2021/12/10 10:23:13;;;;;;;14.43;6.22;;;6.70;99.90;;;;;;6153811;23;20017;-86
2021/12/10 10:25:42;;;;;;;14.65;6.90;;;7.50;99.90;;;;;;6180919;22;20078;-73
2021/12/10 10:28:10;;;;;;;13.68;6.50;;;5.90;99.90;;;;;;6153862;23;20052;-86
2021/12/10 10:30:43;;;;;;;8.15;5.07;;;7.80;99.90;;;;;;6154384;23;20013;-84
2021/12/10 10:33:09;;;;;;;9.23;4.72;;;7.60;99.90;;;;;;6147227;23;20013;-84
2021/12/10 10:35:42;;;;;;;12.52;6.60;;;5.90;99.90;;;;;;6151906;23;20020;-85
2021/12/10 10:38:09;;;;;;;15.98;6.80;;;7.60;99.90;;;;;;6151389;23;20020;-85
2021/12/10 10:40:41;;;;;;;8.45;4.80;;;6.80;99.90;;;;;;6150740;23;20021;-85
2021/12/10 10:43:08;;;;;;;8.45;5.43;;;5.80;99.90;;;;;;6177971;23;20265;-84
2021/12/10 10:45:37;;;;;;;9.95;4.93;;;5.80;99.90;;;;;;6151060;23;20017;-84
2021/12/10 10:48:05;;;;;;;15.60;5.53;;;5.80;99.90;;;;;;6154483;23;20063;-85
2021/12/10 10:50:36;;;;;;;9.75;6.05;;;5.80;99.90;;;;;;6154677;23;20374;-86
2021/12/10 10:53:09;;;;;;;13.27;5.93;;;6.00;99.90;;;;;;6129900;23;20024;-86
2021/12/10 10:55:40;;;;;;;17.92;6.15;;;6.90;99.90;;;;;;6280340;22;20030;-86
2021/12/10 10:58:10;;;;;;;11.13;6.00;;;5.70;99.90;;;;;;6279853;22;20015;-87
2021/12/10 11:00:49;;;;;;;15.15;6.68;;;6.40;99.90;;;;;;6279645;22;20124;-86
2021/12/10 11:03:21;;;;;;;14.43;5.43;;;6.00;99.90;;;;;;6279689;22;20072;-83
2021/12/10 11:05:51;;;;;;;10.77;5.13;;;6.40;99.90;;;;;;6279625;22;20030;-83
2021/12/10 11:08:26;;;;;;;17.33;5.55;;;6.10;99.90;;;;;;6279654;22;20086;-84
2021/12/10 11:10:58;;;;;;;9.32;5.72;;;6.00;99.90;;;;;;6279593;22;20026;-83
2021/12/10 11:13:25;;;;;;;11.10;5.85;;;8.00;99.90;;;;;;6254665;22;20022;-83
2021/12/10 11:16:02;;;;;;;9.20;4.50;;;6.00;99.90;;;;;;6253998;22;20011;-83
2021/12/10 11:18:28;;;;;;;10.80;4.38;;;6.70;99.90;;;;;;6279525;22;20086;-82
2021/12/10 11:20:55;;;;;;;10.40;4.43;;;5.90;99.90;;;;;;6253276;22;20015;-83
2021/12/10 11:23:25;;;;;;;10.32;5.00;;;5.90;99.90;;;;;;6279598;22;20023;-82
2021/12/10 11:25:55;;;;;;;13.60;4.88;;;7.90;99.90;;;;;;6253998;22;20015;-83
2021/12/10 11:28:26;;;;;;;9.13;4.85;;;5.90;99.90;;;;;;6279370;22;20019;-84
2021/12/10 11:31:02;;;;;;;11.63;4.90;;;6.30;99.90;;;;;;6279833;22;20337;-84
2021/12/10 11:33:32;;;;;;;9.15;5.15;;;5.90;99.90;;;;;;6279431;22;20417;-84
2021/12/10 11:36:05;;;;;;;7.78;4.50;;;5.80;99.90;;;;;;6278395;22;20046;-84
2021/12/10 11:38:33;;;;;;;11.45;4.18;;;6.50;99.90;;;;;;6279374;22;20015;-84
2021/12/10 11:41:03;;;;;;;11.70;4.93;;;5.80;99.90;;;;;;6279144;22;20094;-84
2021/12/10 11:46:31;;;;;;;6.40;4.18;;;5.80;99.90;;;;;;6279669;22;20054;-83
2021/12/10 11:49:06;;;;;;;13.70;5.32;;;5.90;99.90;;;;;;6279537;22;20019;-84
2021/12/10 11:51:34;;;;;;;8.52;5.45;;;5.80;99.90;;;;;;6279399;22;20495;-84
2021/12/10 11:54:06;;;;;;;12.20;5.43;;;5.80;99.90;;;;;;6229470;22;20026;-84
2021/12/10 11:56:38;;;;;;;14.38;5.30;;;5.90;99.90;;;;;;6149459;23;20092;-82
2021/12/10 11:59:15;;;;;;;8.07;4.70;;;5.90;99.90;;;;;;6149198;23;20018;-83
2021/12/10 12:01:50;;;;;;;10.88;4.85;;;5.90;99.90;;;;;;6148747;23;20013;-84
2021/12/10 12:04:20;;;;;;;12.02;5.00;;;5.90;99.90;;;;;;6149156;23;20021;-82
2021/12/10 12:06:49;;;;;;;18.98;6.18;;;5.90;99.90;;;;;;6149097;23;20355;-82
2021/12/10 12:09:30;;;;;;;13.82;6.03;;;7.20;99.90;;;;;;6149099;23;20304;-89
2021/12/10 12:12:14;;;;;;;10.57;5.32;;;6.40;99.90;;;;;;6147913;23;20348;-82
2021/12/10 12:14:49;;;;;;;15.80;4.93;;;6.00;99.90;;;;;;6146120;23;20022;-84
2021/12/10 12:17:30;;;;;;;12.98;5.80;;;6.50;99.90;;;;;;6124323;23;20017;-83
2021/12/10 12:19:56;;;;;;;8.48;5.18;;;5.90;99.90;;;;;;6148718;23;20453;-81
2021/12/10 12:25:32;;;;;;;12.52;5.65;;;5.80;99.90;;;;;;6149089;22;20116;-83
2021/12/10 12:28:02;;;;;;;17.08;5.25;;;5.90;99.90;;;;;;6252998;22;20014;-83
2021/12/10 12:31:18;;;;;;;13.15;5.00;;;6.00;99.90;;;;;;6149047;23;20289;-83
2021/12/10 12:33:57;;;;;;;11.73;5.03;;;5.90;99.90;;;;;;6124570;23;20018;-83
2021/12/10 12:36:32;;;;;;;10.68;5.32;;;5.80;99.90;;;;;;6148969;23;20021;-82
2021/12/10 12:38:58;;;;;;;7.35;4.20;;;5.80;99.90;;;;;;6150130;23;20113;-85
2021/12/10 12:41:31;;;;;;;9.82;4.85;;;6.30;99.90;;;;;;6150037;23;20093;-79
2021/12/10 12:44:15;;;;;;;12.23;5.45;;;5.80;99.90;;;;;;6149955;23;20343;-81
2021/12/10 12:47:06;;;;;;;6.75;4.13;;;5.80;99.90;;;;;;6149991;23;20017;-83
2021/12/10 12:49:37;;;;;;;7.63;4.80;;;5.80;99.90;;;;;;6150281;23;20448;-84
2021/12/10 12:52:09;;;;;;;11.13;4.60;;;5.80;99.90;;;;;;6150297;23;20033;-82
2021/12/10 12:55:06;;;;;;;7.88;4.95;;;5.80;99.90;;;;;;6148610;23;20092;-81
2021/12/10 12:57:37;;;;;;;12.70;4.65;;;5.80;99.90;;;;;;6152140;23;20014;-82
2021/12/10 13:00:08;;;;;;;10.95;4.53;;;5.80;99.90;;;;;;6124716;23;20071;-83
2021/12/10 13:02:34;;;;;;;13.30;5.50;;;5.80;99.90;;;;;;6149936;23;20032;-86
2021/12/10 13:05:00;;;;;;;11.52;5.45;;;5.80;99.90;;;;;;6150384;23;20045;-86